MDPC

Punta Cana International Airport

Punta Cana, Dominican Republic
TAF MDPC 200400Z 2006/2106 09015KT 9999 FEW025 PROB30 2008/2015 -RA SCT018 SCT080
Issued Valid From Valid To
Jan-20 @ 04:00 UTC
(7 hours ago)
Jan-20 @ 06:00 UTC
(5 hours ago)
Jan-21 @ 06:00 UTC
(in 19 hours)
Jan-20 @ 06:00 to Jan-21 @ 06:00
TAF MDPC 200400Z 2006/2106 09015KT 9999 FEW025
Wind Visibility Clouds
90° at 15 knots 10,000+ meters
  • Few at 2,500' AGL
Probable  (Probability 30%) Jan-20 @ 08:00 to Jan-20 @ 15:00
PROB30 2008/2015 -RA SCT018 SCT080
Clouds Conditions
  • Scattered at 1,800' AGL
  • Scattered at 8,000' AGL
  • Light Rain
TAF MDPC 200400Z 2006/2106 09015KT 9999 FEW025 PROB30 2008/2015 -RA SCT018 SCT080
Issued Jan-20 @ 04:00 UTC
(7 hours ago)
Valid From Jan-20 @ 06:00 UTC
(5 hours ago)
Valid To Jan-21 @ 06:00 UTC
(in 19 hours)
Jan-20 @ 06:00 - Jan-21 @ 06:00
Wind Visibility
90° at 15 knots 10,000+ meters
Clouds
  • Few at 2,500' AGL
Probability 30% Probable Jan-20 @ 08:00 - Jan-20 @ 15:00
Clouds
  • Scattered at 1,800' AGL
  • Scattered at 8,000' AGL
Conditions
  • Light Rain